createdAt,value
2023-03-31T00:00:56.751Z,67.45
2023-03-31T00:01:56.849Z,67.45
2023-03-31T00:02:57.036Z,67.45
2023-03-31T00:03:57.132Z,67.45
2023-03-31T00:04:57.188Z,67.55
2023-03-31T00:05:57.158Z,67.55
2023-03-31T00:06:57.261Z,67.55
2023-03-31T00:07:57.334Z,67.55
2023-03-31T00:08:57.408Z,67.55
2023-03-31T00:10:07.074Z,67.55
2023-03-31T00:10:57.555Z,67.45
2023-03-31T00:11:57.640Z,67.45
2023-03-31T00:12:57.746Z,67.45
2023-03-31T00:13:57.799Z,67.55
2023-03-31T00:14:57.875Z,67.55
2023-03-31T00:15:57.994Z,67.55
2023-03-31T00:16:58.199Z,67.55
2023-03-31T00:17:58.168Z,67.55
2023-03-31T00:18:58.212Z,67.35
2023-03-31T00:19:58.280Z,67.35
2023-03-31T00:21:00.000Z,67.35
2023-03-31T00:21:58.430Z,67.45
2023-03-31T00:22:58.516Z,67.45
2023-03-31T00:23:58.572Z,67.45
2023-03-31T00:24:58.684Z,67.45
2023-03-31T00:25:58.761Z,67.45
2023-03-31T00:26:58.838Z,67.45
2023-03-31T00:27:58.942Z,67.35
2023-03-31T00:28:59.033Z,67.35
2023-03-31T00:29:59.109Z,67.24
2023-03-31T00:30:59.175Z,67.14
2023-03-31T00:31:59.302Z,67.04
2023-03-31T00:32:59.409Z,66.63
2023-03-31T00:33:59.417Z,66.42
2023-03-31T00:34:59.490Z,66.42
2023-03-31T00:35:59.634Z,66.46
2023-03-31T00:36:59.661Z,66.56
2023-03-31T00:37:59.764Z,66.66
2023-03-31T00:38:59.868Z,66.77
2023-03-31T00:39:59.914Z,66.86
2023-03-31T00:40:59.989Z,66.97
2023-03-31T00:42:00.085Z,66.97
2023-03-31T00:43:00.196Z,67.07
2023-03-31T00:44:00.213Z,67.07
2023-03-31T00:45:00.342Z,67.07
2023-03-31T00:46:00.471Z,67.18
2023-03-31T00:47:00.505Z,67.18
2023-03-31T00:48:00.635Z,67.27
2023-03-31T00:49:00.694Z,67.27
2023-03-31T00:50:00.758Z,67.38
2023-03-31T00:51:00.872Z,67.38
2023-03-31T00:52:00.937Z,67.38
2023-03-31T00:53:01.035Z,67.38
2023-03-31T00:54:01.099Z,67.48
2023-03-31T00:55:01.171Z,67.48
2023-03-31T00:56:01.242Z,67.48
2023-03-31T00:57:01.356Z,67.58
2023-03-31T00:58:01.406Z,67.58
2023-03-31T00:59:01.481Z,67.58
2023-03-31T01:00:01.616Z,67.58
2023-03-31T01:01:01.692Z,67.68
2023-03-31T01:02:01.742Z,67.68
2023-03-31T01:03:01.881Z,67.79
2023-03-31T01:04:01.972Z,67.79
2023-03-31T01:05:02.069Z,67.79
2023-03-31T01:06:02.039Z,67.79
2023-03-31T01:07:02.110Z,67.79
2023-03-31T01:08:02.235Z,67.79
2023-03-31T01:09:02.313Z,67.79
2023-03-31T01:10:02.415Z,67.79
2023-03-31T01:11:02.448Z,67.79
2023-03-31T01:12:02.543Z,67.58
2023-03-31T01:13:02.629Z,67.58
2023-03-31T01:14:02.732Z,67.48
2023-03-31T01:15:02.815Z,67.48
2023-03-31T01:16:03.085Z,67.48
2023-03-31T01:17:14.153Z,67.48
2023-03-31T01:18:03.128Z,67.38
2023-03-31T01:19:03.196Z,67.48
2023-03-31T01:20:03.229Z,67.58
2023-03-31T01:21:03.320Z,67.58
2023-03-31T01:22:03.421Z,67.58
2023-03-31T01:23:03.473Z,67.48
2023-03-31T01:24:03.569Z,67.48
2023-03-31T01:25:03.652Z,67.48
2023-03-31T01:26:03.935Z,67.48
2023-03-31T01:27:03.826Z,67.48
2023-03-31T01:28:03.888Z,67.58
2023-03-31T01:29:04.033Z,67.68
2023-03-31T01:30:04.128Z,67.79
2023-03-31T01:31:04.219Z,67.79
2023-03-31T01:32:04.287Z,67.79
2023-03-31T01:33:04.430Z,67.79
2023-03-31T01:34:04.468Z,67.79
2023-03-31T01:35:04.645Z,67.79
2023-03-31T01:36:05.002Z,67.79
2023-03-31T01:37:04.724Z,67.89
2023-03-31T01:38:04.771Z,67.89
2023-03-31T01:39:04.884Z,67.99
2023-03-31T01:40:04.880Z,67.99
2023-03-31T01:41:04.955Z,67.89
2023-03-31T01:42:05.026Z,67.89
2023-03-31T01:43:05.120Z,67.89
2023-03-31T01:44:05.227Z,67.89
2023-03-31T01:45:05.277Z,67.99
2023-03-31T01:46:05.591Z,67.89
2023-03-31T01:47:05.446Z,67.99
2023-03-31T01:48:05.535Z,68.09
2023-03-31T01:49:05.652Z,68.09
2023-03-31T01:50:05.706Z,68.19
2023-03-31T01:51:05.775Z,68.23
2023-03-31T01:52:05.987Z,68.23
2023-03-31T01:53:05.956Z,68.23
2023-03-31T01:54:06.059Z,68.23
2023-03-31T01:55:06.849Z,68.33
2023-03-31T01:56:06.445Z,68.43
2023-03-31T01:57:06.364Z,68.43
2023-03-31T01:58:06.363Z,68.43
2023-03-31T01:59:06.483Z,68.53
2023-03-31T02:00:06.521Z,68.53
2023-03-31T02:01:06.601Z,68.53
2023-03-31T02:02:06.744Z,68.53
2023-03-31T02:03:06.819Z,68.53
2023-03-31T02:04:06.833Z,68.63
2023-03-31T02:05:06.902Z,68.84
2023-03-31T02:06:07.203Z,68.84
2023-03-31T02:07:07.035Z,68.94
2023-03-31T02:08:07.114Z,68.94
2023-03-31T02:09:07.210Z,69.04
2023-03-31T02:10:07.262Z,69.15
2023-03-31T02:11:07.386Z,69.15
2023-03-31T02:12:07.446Z,69.24
2023-03-31T02:13:07.576Z,69.35
2023-03-31T02:14:07.692Z,69.35
2023-03-31T02:16:08.088Z,69.45
2023-03-31T02:17:07.909Z,69.56
2023-03-31T02:18:07.959Z,69.56
2023-03-31T02:19:08.095Z,69.56
2023-03-31T02:20:08.128Z,69.65
2023-03-31T02:21:08.220Z,69.65
2023-03-31T02:22:08.250Z,69.65
2023-03-31T02:23:08.332Z,69.65
2023-03-31T02:24:08.430Z,69.65
2023-03-31T02:25:08.504Z,69.76
2023-03-31T02:26:08.669Z,69.76
2023-03-31T02:27:08.646Z,69.76
2023-03-31T02:28:08.706Z,69.86
2023-03-31T02:29:08.829Z,69.86
2023-03-31T02:30:08.886Z,69.96
2023-03-31T02:31:08.979Z,70.10
2023-03-31T02:32:09.062Z,70.20
2023-03-31T02:33:09.169Z,70.20
2023-03-31T02:34:09.223Z,70.30
2023-03-31T02:35:09.250Z,70.40
2023-03-31T02:36:09.708Z,70.40
2023-03-31T02:37:09.374Z,70.47
2023-03-31T02:38:09.447Z,70.51
2023-03-31T02:39:09.605Z,70.61
2023-03-31T02:40:09.615Z,70.61
2023-03-31T02:41:09.732Z,70.71
2023-03-31T02:42:09.795Z,70.92
2023-03-31T02:43:09.877Z,71.22
2023-03-31T02:44:09.987Z,71.53
2023-03-31T02:45:10.031Z,71.63
2023-03-31T02:46:10.367Z,71.63
2023-03-31T02:47:10.196Z,71.73
2023-03-31T02:48:10.277Z,71.73
2023-03-31T02:49:10.466Z,71.83
2023-03-31T02:50:10.427Z,72.04
2023-03-31T02:51:10.509Z,72.04
2023-03-31T02:52:10.581Z,72.04
2023-03-31T02:53:10.647Z,72.07
2023-03-31T02:54:10.729Z,72.07
2023-03-31T02:55:10.812Z,72.17
2023-03-31T02:56:10.858Z,72.17
2023-03-31T02:57:11.009Z,72.28
2023-03-31T02:58:11.056Z,72.28
2023-03-31T02:59:11.155Z,72.28
2023-03-31T03:00:11.194Z,72.28
2023-03-31T03:01:11.291Z,72.28
2023-03-31T03:02:11.391Z,72.28
2023-03-31T03:03:11.564Z,72.28
2023-03-31T03:04:11.621Z,72.28
2023-03-31T03:05:11.611Z,72.28
2023-03-31T03:06:11.752Z,72.28
2023-03-31T03:07:11.804Z,72.28
2023-03-31T03:08:11.870Z,72.28
2023-03-31T03:09:11.980Z,72.38
2023-03-31T03:10:12.026Z,72.38
2023-03-31T03:11:12.094Z,72.28
2023-03-31T03:12:12.167Z,72.28
2023-03-31T03:13:12.228Z,72.28
2023-03-31T03:14:12.362Z,72.28
2023-03-31T03:15:12.403Z,72.28
2023-03-31T03:16:12.534Z,72.28
2023-03-31T03:17:12.584Z,72.28
2023-03-31T03:18:12.723Z,72.28
2023-03-31T03:19:12.773Z,72.28
2023-03-31T03:20:12.882Z,72.38
2023-03-31T03:21:12.941Z,72.38
2023-03-31T03:22:13.029Z,72.38
2023-03-31T03:23:13.112Z,72.38
2023-03-31T03:24:13.217Z,72.38
2023-03-31T03:25:13.292Z,72.38
2023-03-31T03:26:13.362Z,72.38
2023-03-31T03:27:13.439Z,72.38
2023-03-31T03:28:13.526Z,72.38
2023-03-31T03:29:13.667Z,72.38
2023-03-31T03:30:13.738Z,72.38
2023-03-31T03:31:13.849Z,72.38
2023-03-31T03:32:13.888Z,72.38
2023-03-31T03:33:15.536Z,72.38
2023-03-31T03:34:14.038Z,72.48
2023-03-31T03:35:14.151Z,72.48
2023-03-31T03:36:14.245Z,72.48
2023-03-31T03:37:14.248Z,72.48
2023-03-31T03:38:14.352Z,72.48
2023-03-31T03:39:14.447Z,72.58
2023-03-31T03:40:14.519Z,72.58
2023-03-31T03:41:14.588Z,72.58
2023-03-31T03:42:14.693Z,72.58
2023-03-31T03:43:14.752Z,72.58
2023-03-31T03:44:14.881Z,72.69
2023-03-31T03:45:14.955Z,72.58
2023-03-31T03:46:15.130Z,72.58
2023-03-31T03:47:15.177Z,72.58
2023-03-31T03:48:15.231Z,72.58
2023-03-31T03:49:15.324Z,72.58
2023-03-31T03:50:16.446Z,72.58
2023-03-31T03:51:15.485Z,72.69
2023-03-31T03:52:15.558Z,72.69
2023-03-31T03:53:15.633Z,72.69
2023-03-31T03:54:15.720Z,72.69
2023-03-31T03:55:15.783Z,72.69
2023-03-31T03:56:15.888Z,72.79
2023-03-31T03:57:16.037Z,72.69
2023-03-31T03:58:16.043Z,72.69
2023-03-31T03:59:16.144Z,72.79
2023-03-31T04:00:16.214Z,72.79
2023-03-31T04:01:16.283Z,72.79
2023-03-31T04:02:16.371Z,72.79
2023-03-31T04:03:16.546Z,72.79
2023-03-31T04:04:16.539Z,72.79
2023-03-31T04:05:16.617Z,72.89
2023-03-31T04:06:16.680Z,72.89
2023-03-31T04:07:16.748Z,72.89
2023-03-31T04:08:16.816Z,72.89
2023-03-31T04:09:16.914Z,72.89
2023-03-31T04:10:16.991Z,72.89
2023-03-31T04:11:18.928Z,72.89
2023-03-31T04:12:17.184Z,72.89
2023-03-31T04:13:17.208Z,72.89
2023-03-31T04:14:17.380Z,72.79
2023-03-31T04:15:17.401Z,72.79
2023-03-31T04:16:17.501Z,72.79
2023-03-31T04:17:17.579Z,72.79
2023-03-31T04:18:17.641Z,72.69
2023-03-31T04:19:17.855Z,72.69
2023-03-31T04:20:17.849Z,72.69
2023-03-31T04:21:17.904Z,72.69
2023-03-31T04:22:17.994Z,72.69
2023-03-31T04:23:18.078Z,72.69
2023-03-31T04:24:19.153Z,72.69
2023-03-31T04:25:18.248Z,72.69
2023-03-31T04:26:18.353Z,72.58
2023-03-31T04:27:18.410Z,72.58
2023-03-31T04:28:18.484Z,72.48
2023-03-31T04:29:18.591Z,72.52
2023-03-31T04:30:18.639Z,72.52
2023-03-31T04:31:18.739Z,72.52
2023-03-31T04:32:18.788Z,72.41
2023-03-31T04:33:18.858Z,72.52
2023-03-31T04:34:18.984Z,72.41
2023-03-31T04:35:19.041Z,72.52
2023-03-31T04:36:19.127Z,72.52
2023-03-31T04:37:19.190Z,72.41
2023-03-31T04:38:19.250Z,72.41
2023-03-31T04:39:19.340Z,72.41
2023-03-31T04:40:19.398Z,72.41
2023-03-31T04:41:19.455Z,72.41
2023-03-31T04:42:19.545Z,72.52
2023-03-31T04:43:19.640Z,72.52
2023-03-31T04:44:19.756Z,72.52
2023-03-31T04:45:19.786Z,72.62
2023-03-31T04:46:19.931Z,72.62
2023-03-31T04:47:19.999Z,72.62
2023-03-31T04:48:20.086Z,72.72
2023-03-31T04:49:20.206Z,72.72
2023-03-31T04:50:20.238Z,72.62
2023-03-31T04:51:20.296Z,72.62
2023-03-31T04:52:20.376Z,72.41
2023-03-31T04:53:20.484Z,72.31
2023-03-31T04:54:20.584Z,72.21
2023-03-31T04:55:20.642Z,72.31
2023-03-31T04:56:20.714Z,72.21
2023-03-31T04:57:20.832Z,72.21
2023-03-31T04:58:20.909Z,72.21
2023-03-31T04:59:20.963Z,72.11
2023-03-31T05:00:21.052Z,72.11
2023-03-31T05:01:21.167Z,72.11
2023-03-31T05:02:22.962Z,72.00
2023-03-31T05:03:21.368Z,72.00
2023-03-31T05:04:21.404Z,72.00
2023-03-31T05:05:21.460Z,72.00
2023-03-31T05:06:21.547Z,72.00
2023-03-31T05:07:21.624Z,71.90
2023-03-31T05:08:21.713Z,71.80
2023-03-31T05:09:21.844Z,71.80
2023-03-31T05:10:21.928Z,71.70
2023-03-31T05:11:21.930Z,71.70
2023-03-31T05:12:22.004Z,71.70
2023-03-31T05:13:22.093Z,71.70
2023-03-31T05:14:22.201Z,71.80
2023-03-31T05:15:22.279Z,71.70
2023-03-31T05:16:22.461Z,71.70
2023-03-31T05:17:22.756Z,71.70
2023-03-31T05:18:22.543Z,71.59
2023-03-31T05:19:22.644Z,71.59
2023-03-31T05:20:22.707Z,71.59
2023-03-31T05:21:22.803Z,71.59
2023-03-31T05:22:22.878Z,71.70
2023-03-31T05:23:22.956Z,71.59
2023-03-31T05:24:23.076Z,71.59
2023-03-31T05:25:23.112Z,71.59
2023-03-31T05:26:23.214Z,71.49
2023-03-31T05:27:23.244Z,71.59
2023-03-31T05:28:23.332Z,71.70
2023-03-31T05:29:23.438Z,71.80
2023-03-31T05:30:23.556Z,71.80
2023-03-31T05:31:23.617Z,71.83
2023-03-31T05:32:23.758Z,71.94
2023-03-31T05:33:23.787Z,72.04
2023-03-31T05:34:23.893Z,72.04
2023-03-31T05:35:25.448Z,71.94
2023-03-31T05:36:24.032Z,72.04
2023-03-31T05:37:24.107Z,72.04
2023-03-31T05:38:24.196Z,72.04
2023-03-31T05:39:24.277Z,72.04
2023-03-31T05:40:24.385Z,71.94
2023-03-31T05:41:24.431Z,71.90
2023-03-31T05:42:24.485Z,71.94
2023-03-31T05:43:24.547Z,71.94
2023-03-31T05:44:24.701Z,71.94
2023-03-31T05:45:24.767Z,71.94
2023-03-31T05:46:24.851Z,71.94
2023-03-31T05:47:24.917Z,71.94
2023-03-31T05:48:25.021Z,71.94
2023-03-31T05:49:25.077Z,71.94
2023-03-31T05:50:25.148Z,71.94
2023-03-31T05:51:25.234Z,71.83
2023-03-31T05:52:25.320Z,71.73
2023-03-31T05:53:25.400Z,71.73
2023-03-31T05:54:25.528Z,71.73
2023-03-31T05:55:25.634Z,71.83
2023-03-31T05:56:25.677Z,71.73
2023-03-31T05:57:25.818Z,71.62
2023-03-31T05:58:25.856Z,71.53
2023-03-31T05:59:25.966Z,71.62
2023-03-31T06:00:26.048Z,71.62
2023-03-31T06:01:26.140Z,71.59
2023-03-31T06:02:26.328Z,71.53
2023-03-31T06:03:26.329Z,71.42
2023-03-31T06:04:26.501Z,71.32
2023-03-31T06:05:26.443Z,71.01
2023-03-31T06:06:26.527Z,70.98
2023-03-31T06:07:26.614Z,71.08
2023-03-31T06:08:26.702Z,70.88
2023-03-31T06:09:26.807Z,70.78
2023-03-31T06:10:26.871Z,70.88
2023-03-31T06:11:26.944Z,70.26
2023-03-31T06:12:27.059Z,69.75
2023-03-31T06:13:27.114Z,69.75
2023-03-31T06:14:27.263Z,69.96
2023-03-31T06:15:27.331Z,70.16
2023-03-31T06:16:27.474Z,70.26
2023-03-31T06:17:27.482Z,70.47
2023-03-31T06:18:27.604Z,70.47
2023-03-31T06:19:27.692Z,70.26
2023-03-31T06:20:28.638Z,70.37
2023-03-31T06:21:27.857Z,70.16
2023-03-31T06:22:27.921Z,69.55
2023-03-31T06:23:27.979Z,69.65
2023-03-31T06:24:28.127Z,69.75
2023-03-31T06:25:32.390Z,69.55
2023-03-31T06:26:28.219Z,69.34
2023-03-31T06:27:28.294Z,69.24
2023-03-31T06:28:28.377Z,69.55
2023-03-31T06:29:28.466Z,69.96
2023-03-31T06:30:28.546Z,69.96
2023-03-31T06:31:28.651Z,69.96
2023-03-31T06:32:28.723Z,70.16
2023-03-31T06:33:28.786Z,70.06
2023-03-31T06:34:28.959Z,70.16
2023-03-31T06:35:28.969Z,70.26
2023-03-31T06:36:29.126Z,70.37
2023-03-31T06:37:29.173Z,70.47
2023-03-31T06:38:29.288Z,70.57
2023-03-31T06:39:29.381Z,70.47
2023-03-31T06:40:29.435Z,70.57
2023-03-31T06:41:29.532Z,71.19
2023-03-31T06:42:29.651Z,71.59
2023-03-31T06:43:29.740Z,71.49
2023-03-31T06:44:29.780Z,71.39
2023-03-31T06:45:29.884Z,71.49
2023-03-31T06:46:29.996Z,71.70
2023-03-31T06:47:30.041Z,71.70
2023-03-31T06:48:30.122Z,71.70
2023-03-31T06:49:30.225Z,71.80
2023-03-31T06:50:30.288Z,71.90
2023-03-31T06:51:32.598Z,71.90
2023-03-31T06:52:30.474Z,71.90
2023-03-31T06:53:30.556Z,71.97
2023-03-31T06:54:30.656Z,71.97
2023-03-31T06:55:30.706Z,71.87
2023-03-31T06:56:30.783Z,71.97
2023-03-31T06:57:30.875Z,71.97
2023-03-31T06:58:31.714Z,71.97
2023-03-31T06:59:31.044Z,71.97
2023-03-31T07:00:31.135Z,71.97
2023-03-31T07:01:31.246Z,72.07
2023-03-31T07:02:31.407Z,72.07
2023-03-31T07:03:31.370Z,72.07
2023-03-31T07:04:31.485Z,72.17
2023-03-31T07:05:31.519Z,72.17
2023-03-31T07:06:31.588Z,72.17
2023-03-31T07:07:31.657Z,72.28
2023-03-31T07:08:31.755Z,72.38
2023-03-31T07:09:31.848Z,72.38
2023-03-31T07:10:31.925Z,72.48
2023-03-31T07:11:32.007Z,72.48
2023-03-31T07:12:32.067Z,72.58
2023-03-31T07:13:32.133Z,72.58
2023-03-31T07:14:32.302Z,72.58
2023-03-31T07:15:32.354Z,72.58
2023-03-31T07:16:32.493Z,72.58
2023-03-31T07:22:10.729Z,73.33
2023-03-31T07:26:36.174Z,73.94
2023-03-31T07:27:37.300Z,74.05
2023-03-31T07:32:02.512Z,74.35
2023-03-31T08:01:38.633Z,74.69
2023-03-31T08:02:39.744Z,74.69
2023-03-31T08:03:39.694Z,74.39
2023-03-31T08:04:39.755Z,73.98
2023-03-31T08:05:39.736Z,73.44
2023-03-31T08:08:36.097Z,73.54
2023-03-31T08:30:43.959Z,76.64
2023-03-31T08:43:43.239Z,73.98
2023-03-31T08:44:44.271Z,73.94
2023-03-31T08:46:02.448Z,74.46
2023-03-31T08:46:45.505Z,74.35
2023-03-31T08:47:44.483Z,74.26
2023-03-31T09:06:10.796Z,74.97
2023-03-31T09:07:11.912Z,75.04
2023-03-31T09:08:11.919Z,75.14
2023-03-31T09:09:11.977Z,74.84
2023-03-31T09:16:14.897Z,74.32
2023-03-31T09:17:13.481Z,74.49
2023-03-31T09:18:13.512Z,74.49
2023-03-31T09:19:13.668Z,74.49
2023-03-31T09:32:56.389Z,74.39
2023-03-31T09:42:18.360Z,74.49
2023-03-31T09:43:19.417Z,74.90
2023-03-31T10:00:04.549Z,74.25
2023-03-31T10:23:38.982Z,75.89
2023-03-31T10:24:40.059Z,76.19
2023-03-31T10:25:40.050Z,76.09
2023-03-31T10:26:40.126Z,76.06
2023-03-31T10:27:40.182Z,75.75
2023-03-31T10:28:40.275Z,75.13
2023-03-31T10:29:40.381Z,75.10
2023-03-31T10:30:40.440Z,74.90
2023-03-31T10:31:40.524Z,74.29
2023-03-31T10:32:40.684Z,71.22
2023-03-31T10:36:01.432Z,69.90
2023-03-31T10:37:02.418Z,71.43
2023-03-31T10:38:04.570Z,71.70
2023-03-31T10:39:02.560Z,71.60
2023-03-31T10:40:02.595Z,71.70
2023-03-31T10:41:02.776Z,71.50
2023-03-31T10:42:02.779Z,70.61
2023-03-31T10:43:02.899Z,71.12
2023-03-31T10:44:02.955Z,71.73
2023-03-31T10:45:03.023Z,72.17
2023-03-31T10:46:03.098Z,72.69
2023-03-31T10:47:03.234Z,73.19
2023-03-31T10:48:03.322Z,73.50
2023-03-31T10:49:03.359Z,73.91
2023-03-31T10:50:03.416Z,74.11
2023-03-31T10:51:03.581Z,74.52
2023-03-31T10:52:03.612Z,74.05
2023-03-31T10:53:03.694Z,74.15
2023-03-31T10:54:03.799Z,74.05
2023-03-31T10:55:03.840Z,74.15
2023-03-31T10:56:03.923Z,73.94
2023-03-31T10:57:04.014Z,74.15
2023-03-31T10:58:04.063Z,74.87
2023-03-31T10:59:05.807Z,74.35
2023-03-31T11:00:04.225Z,74.15
2023-03-31T11:01:04.744Z,73.64
2023-03-31T11:02:04.452Z,72.00
2023-03-31T11:03:04.619Z,71.80
2023-03-31T11:04:04.709Z,72.28
2023-03-31T11:05:04.761Z,72.79
2023-03-31T11:06:04.736Z,72.99
2023-03-31T11:07:05.827Z,72.07
2023-03-31T11:08:04.919Z,71.77
2023-03-31T11:09:06.992Z,72.38
2023-03-31T11:10:05.078Z,70.44
2023-03-31T11:11:05.384Z,71.15
2023-03-31T11:12:05.257Z,71.77
2023-03-31T11:13:05.465Z,71.53
2023-03-31T11:14:05.456Z,71.22
2023-03-31T11:15:05.479Z,71.43
2023-03-31T11:16:05.725Z,71.73
2023-03-31T11:17:05.700Z,71.84
2023-03-31T11:18:05.788Z,71.84
2023-03-31T11:19:05.840Z,71.84
2023-03-31T11:20:05.895Z,71.84
2023-03-31T11:21:06.138Z,71.63
2023-03-31T11:22:06.076Z,71.33
2023-03-31T11:23:06.094Z,71.33
2023-03-31T11:24:06.219Z,71.53
2023-03-31T11:25:06.349Z,71.33
2023-03-31T11:26:06.390Z,70.92
2023-03-31T11:27:06.428Z,70.78
2023-03-31T11:28:06.517Z,70.57
2023-03-31T11:29:06.655Z,70.68
2023-03-31T11:30:06.692Z,70.68
2023-03-31T11:31:07.029Z,69.86
2023-03-31T11:32:06.911Z,69.66
2023-03-31T11:33:07.010Z,69.86
2023-03-31T11:34:07.047Z,69.96
2023-03-31T11:35:07.098Z,69.66
2023-03-31T11:36:07.239Z,69.25
2023-03-31T11:37:07.260Z,69.35
2023-03-31T11:38:07.352Z,69.42
2023-03-31T11:39:07.431Z,69.42
2023-03-31T11:40:07.497Z,69.42
2023-03-31T11:41:08.042Z,68.71
2023-03-31T11:42:07.683Z,67.99
2023-03-31T11:43:07.733Z,67.99
2023-03-31T11:44:07.867Z,68.10
2023-03-31T11:45:07.927Z,67.90
2023-03-31T11:46:08.315Z,67.59
2023-03-31T11:47:08.105Z,67.18
2023-03-31T11:48:08.276Z,67.18
2023-03-31T11:49:08.320Z,67.18
2023-03-31T11:50:08.364Z,67.18
2023-03-31T11:51:08.442Z,67.18
2023-03-31T11:52:08.499Z,67.08
2023-03-31T11:53:08.586Z,67.08
2023-03-31T11:54:08.676Z,66.77
2023-03-31T11:55:08.778Z,66.97
2023-03-31T11:56:09.021Z,66.16
2023-03-31T11:57:08.941Z,66.27
2023-03-31T11:58:09.046Z,66.57
2023-03-31T11:59:09.202Z,66.36
2023-03-31T12:00:09.292Z,66.06
2023-03-31T12:01:09.251Z,66.13
2023-03-31T12:02:09.315Z,66.33
2023-03-31T12:03:09.459Z,66.44
2023-03-31T12:04:09.680Z,66.64
2023-03-31T12:05:09.658Z,66.74
2023-03-31T12:06:10.155Z,66.74
2023-03-31T12:07:09.756Z,67.05
2023-03-31T12:08:09.833Z,66.94
2023-03-31T12:09:10.057Z,66.94
2023-03-31T12:10:09.991Z,67.15
2023-03-31T12:11:10.076Z,67.25
2023-03-31T12:12:10.157Z,67.35
2023-03-31T12:13:10.239Z,67.15
2023-03-31T12:14:10.350Z,66.23
2023-03-31T12:15:10.392Z,66.54
2023-03-31T12:16:10.737Z,67.15
2023-03-31T12:17:10.538Z,67.29
2023-03-31T12:18:10.664Z,67.38
2023-03-31T12:19:10.728Z,67.49
2023-03-31T12:20:10.864Z,67.18
2023-03-31T12:21:10.880Z,66.77
2023-03-31T12:22:10.895Z,66.19
2023-03-31T12:23:10.957Z,66.09
2023-03-31T12:24:11.104Z,65.28
2023-03-31T12:25:11.353Z,65.00
2023-03-31T12:26:11.367Z,65.00
2023-03-31T12:27:11.333Z,65.31
2023-03-31T12:28:11.410Z,65.81
2023-03-31T12:29:11.532Z,66.15
2023-03-31T12:30:11.586Z,66.46
2023-03-31T12:31:11.737Z,66.97
2023-03-31T12:32:11.747Z,67.68
2023-03-31T12:33:11.854Z,68.33
2023-03-31T12:34:12.000Z,68.74
2023-03-31T12:35:11.928Z,68.94
2023-03-31T12:36:12.178Z,68.94
2023-03-31T12:37:12.152Z,69.04
2023-03-31T12:38:12.299Z,69.24
2023-03-31T12:39:12.327Z,69.28
2023-03-31T12:47:20.808Z,69.96
2023-03-31T12:48:21.816Z,70.16
2023-03-31T12:49:21.887Z,70.37
2023-03-31T12:50:22.040Z,70.57
2023-03-31T12:51:22.042Z,70.47
2023-03-31T12:52:22.126Z,70.47
2023-03-31T12:53:22.182Z,70.43
2023-03-31T12:54:22.260Z,70.54
2023-03-31T12:55:22.333Z,70.64
2023-03-31T12:56:22.394Z,70.64
2023-03-31T12:57:22.564Z,70.64
2023-03-31T12:58:22.561Z,70.43
2023-03-31T12:59:22.655Z,70.34
2023-03-31T13:00:22.782Z,70.64
2023-03-31T13:01:22.899Z,70.84
2023-03-31T13:02:22.957Z,71.15
2023-03-31T13:03:23.203Z,71.25
2023-03-31T13:04:25.412Z,71.36
2023-03-31T13:08:24.733Z,71.80
2023-03-31T13:12:15.738Z,72.34
2023-03-31T13:13:26.851Z,72.45
2023-03-31T13:15:56.456Z,72.96
2023-03-31T13:17:14.262Z,72.86
2023-03-31T13:18:08.181Z,72.96
2023-03-31T13:23:22.831Z,73.71
2023-03-31T13:24:32.944Z,73.71
2023-03-31T13:25:23.796Z,74.22
2023-03-31T13:28:19.501Z,74.19
2023-03-31T13:30:47.366Z,74.32
2023-03-31T13:33:06.010Z,74.94
2023-03-31T13:34:06.989Z,75.35
2023-03-31T13:35:07.084Z,75.76
2023-03-31T13:36:07.308Z,75.42
2023-03-31T13:37:07.226Z,75.42
2023-03-31T13:38:07.316Z,75.21
2023-03-31T13:39:18.513Z,75.52
2023-03-31T13:40:07.454Z,75.52
2023-03-31T13:41:07.544Z,75.10
2023-03-31T13:42:07.672Z,75.42
2023-03-31T13:43:07.756Z,75.14
2023-03-31T13:44:07.819Z,75.14
2023-03-31T13:45:07.951Z,75.24
2023-03-31T13:59:09.988Z,78.94
2023-03-31T14:00:10.967Z,78.94
2023-03-31T14:01:11.027Z,78.53
2023-03-31T14:02:11.157Z,79.14
2023-03-31T14:03:11.212Z,79.00
2023-03-31T14:04:11.280Z,79.00
2023-03-31T14:05:11.725Z,78.80
2023-03-31T14:18:44.093Z,77.87
2023-03-31T14:19:45.116Z,76.65
2023-03-31T14:20:46.172Z,76.85
2023-03-31T14:32:54.796Z,76.85
2023-03-31T14:33:55.786Z,77.06
2023-03-31T14:34:55.835Z,77.06
2023-03-31T14:35:56.061Z,77.12
2023-03-31T15:24:21.043Z,68.72
2023-03-31T15:29:20.742Z,70.97
2023-03-31T15:32:10.446Z,70.56
2023-03-31T17:56:02.934Z,72.55
2023-03-31T17:57:04.588Z,72.24
2023-03-31T17:58:04.021Z,72.31
2023-03-31T17:59:05.217Z,72.31
2023-03-31T18:00:04.173Z,72.10
2023-03-31T18:01:04.291Z,71.76
2023-03-31T18:02:04.372Z,71.04
2023-03-31T18:03:04.431Z,70.42
2023-03-31T18:04:04.421Z,70.32
2023-03-31T18:05:04.550Z,69.78
2023-03-31T18:06:04.632Z,69.47
2023-03-31T18:07:16.913Z,68.03
2023-03-31T18:08:04.732Z,68.44
2023-03-31T18:09:04.913Z,68.34
2023-03-31T18:10:04.951Z,68.03
2023-03-31T18:11:04.997Z,67.90
2023-03-31T18:12:05.147Z,67.79
2023-03-31T18:13:05.186Z,67.79
2023-03-31T18:14:05.242Z,67.69
2023-03-31T18:15:05.361Z,67.79
2023-03-31T18:16:05.439Z,68.00
2023-03-31T18:17:05.510Z,65.00
2023-03-31T18:18:05.562Z,64.38
2023-03-31T18:19:05.639Z,65.20
2023-03-31T18:20:05.719Z,65.41
2023-03-31T18:21:05.796Z,65.81
2023-03-31T18:22:05.870Z,66.02
2023-03-31T18:23:06.144Z,65.10
2023-03-31T18:24:06.085Z,64.28
2023-03-31T18:25:06.220Z,64.04
2023-03-31T18:26:06.276Z,63.94
2023-03-31T18:27:06.307Z,63.64
2023-03-31T18:28:06.405Z,63.22
2023-03-31T18:29:07.972Z,63.84
2023-03-31T18:30:06.565Z,63.32
2023-03-31T18:31:06.688Z,63.22
2023-03-31T18:32:06.868Z,63.84
2023-03-31T18:33:06.946Z,63.60
2023-03-31T18:34:06.915Z,63.81
2023-03-31T18:35:06.986Z,63.81
2023-03-31T18:36:07.445Z,63.50
2023-03-31T18:37:07.187Z,63.60
2023-03-31T18:38:07.234Z,63.70
2023-03-31T18:39:07.262Z,63.50
2023-03-31T18:40:07.376Z,63.81
2023-03-31T18:41:07.460Z,64.12
2023-03-31T18:42:07.535Z,64.22
2023-03-31T18:43:07.617Z,64.32
2023-03-31T18:44:07.688Z,64.42
2023-03-31T18:45:07.761Z,64.83
2023-03-31T18:46:07.819Z,65.34
2023-03-31T18:47:08.035Z,65.45
2023-03-31T18:48:08.087Z,65.55
2023-03-31T18:49:08.064Z,65.55
2023-03-31T18:50:08.197Z,65.55
2023-03-31T18:51:08.221Z,64.94
2023-03-31T18:52:08.289Z,64.73
2023-03-31T18:53:08.384Z,64.94
2023-03-31T18:54:08.444Z,65.34
2023-03-31T18:55:08.510Z,64.42
2023-03-31T18:56:08.661Z,62.58
2023-03-31T18:57:08.681Z,62.68
2023-03-31T18:59:25.653Z,62.27
2023-03-31T19:00:26.712Z,62.17
2023-03-31T19:01:26.911Z,63.40
2023-03-31T19:02:26.904Z,63.70
2023-03-31T19:03:27.113Z,64.22
2023-03-31T19:04:27.004Z,64.32
2023-03-31T19:05:27.274Z,64.53
2023-03-31T19:06:27.119Z,64.53
2023-03-31T19:07:27.237Z,64.62
2023-03-31T19:08:27.341Z,64.83
2023-03-31T19:09:27.386Z,64.73
2023-03-31T19:10:27.456Z,64.73
2023-03-31T19:11:27.580Z,65.04
2023-03-31T19:12:27.664Z,65.14
2023-03-31T19:13:27.768Z,65.55
2023-03-31T19:14:27.832Z,65.45
2023-03-31T19:15:28.210Z,65.45
2023-03-31T19:16:28.049Z,64.94
2023-03-31T19:17:28.141Z,64.62
2023-03-31T19:18:28.198Z,64.22
2023-03-31T19:19:28.279Z,64.53
2023-03-31T19:20:28.305Z,64.94
2023-03-31T19:21:28.380Z,65.14
2023-03-31T19:22:28.438Z,65.34
2023-03-31T19:23:28.523Z,65.45
2023-03-31T19:24:28.660Z,65.55
2023-03-31T19:25:28.929Z,65.75
2023-03-31T19:26:29.720Z,65.45
2023-03-31T19:27:28.845Z,65.55
2023-03-31T19:28:28.890Z,65.55
2023-03-31T19:29:29.016Z,65.55
2023-03-31T19:30:29.136Z,65.04
2023-03-31T19:31:29.216Z,65.14
2023-03-31T19:32:29.294Z,65.14
2023-03-31T19:33:29.345Z,64.83
2023-03-31T19:34:29.455Z,64.53
2023-03-31T19:35:29.763Z,64.42
2023-03-31T19:36:29.639Z,64.53
2023-03-31T19:37:29.695Z,64.42
2023-03-31T19:38:29.754Z,64.01
2023-03-31T19:39:29.898Z,64.01
2023-03-31T19:40:29.922Z,64.12
2023-03-31T19:41:30.027Z,64.01
2023-03-31T19:42:30.099Z,63.60
2023-03-31T19:43:30.884Z,63.29
2023-03-31T19:44:30.315Z,63.40
2023-03-31T19:45:30.694Z,63.50
2023-03-31T19:46:30.599Z,63.50
2023-03-31T19:47:30.657Z,63.60
2023-03-31T19:48:30.643Z,63.81
2023-03-31T19:49:30.847Z,63.91
2023-03-31T19:50:30.777Z,63.70
2023-03-31T19:51:30.905Z,63.40
2023-03-31T19:52:31.004Z,63.40
2023-03-31T19:53:31.096Z,63.57